Time;durP1;ratioP1;P1;durP2;ratioP2;P2;SDS_P1;SDS_P2;PMS_P1;PMS_P2;Temp;Humidity;BMP_temperature;BMP_pressure;BME280_temperature;BME280_humidity;BME280_pressure;Samples;Min_cycle;Max_cycle;Signal;HPM_P1;HPM_P2
2022/04/15 00:00:00;;;;;;;7.55;1.27;;;8.70;57.60;;;;;;4976460;28;20041;-87
2022/04/15 00:02:25;;;;;;;5.95;1.70;;;8.70;57.80;;;;;;4959153;28;20517;-87
2022/04/15 00:04:51;;;;;;;6.30;2.53;;;8.60;58.60;;;;;;4991416;28;20550;-86
2022/04/15 00:07:17;;;;;;;10.63;3.60;;;8.60;59.50;;;;;;4959032;28;20039;-87
2022/04/15 00:09:43;;;;;;;;;;;8.50;60.90;;;;;;4959417;28;20027;-87
2022/04/15 00:12:17;;;;;;;9.88;3.65;;;8.50;61.30;;;;;;4958940;28;20389;-87
2022/04/15 00:14:43;;;;;;;5.03;2.60;;;8.40;62.00;;;;;;4958742;28;20023;-87
2022/04/15 00:17:08;;;;;;;6.80;2.83;;;8.40;63.20;;;;;;4959113;28;20041;-86
2022/04/15 00:19:34;;;;;;;10.65;2.40;;;8.30;63.90;;;;;;4976230;28;20026;-87
2022/04/15 00:22:00;;;;;;;5.00;2.00;;;8.30;64.30;;;;;;4958946;28;20117;-87
2022/04/15 00:24:25;;;;;;;4.53;1.55;;;8.20;64.10;;;;;;4975924;28;20078;-87
2022/04/15 00:26:51;;;;;;;;;;;8.20;64.30;;;;;;4958739;28;20027;-87
2022/04/15 00:29:17;;;;;;;4.57;1.58;;;8.20;65.60;;;;;;4958903;28;20513;-86
2022/04/15 00:31:42;;;;;;;;;;;8.20;65.20;;;;;;4958864;28;20035;-87
2022/04/15 00:34:08;;;;;;;5.43;2.63;;;8.20;65.50;;;;;;4958630;28;19972;-86
2022/04/15 00:36:34;;;;;;;5.20;2.20;;;8.20;66.40;;;;;;4958731;28;20496;-87
2022/04/15 00:38:59;;;;;;;7.25;2.75;;;8.10;66.90;;;;;;4958179;28;20035;-87
2022/04/15 00:41:25;;;;;;;;;;;8.20;67.00;;;;;;4958964;28;20034;-87
2022/04/15 00:43:55;;;;;;;4.53;2.38;;;8.10;65.60;;;;;;4958290;28;19906;-87
2022/04/15 00:46:21;;;;;;;6.35;2.55;;;8.20;64.60;;;;;;4957922;28;20109;-87
2022/04/15 00:48:47;;;;;;;;;;;8.20;64.70;;;;;;4975922;28;20491;-87
2022/04/15 00:51:12;;;;;;;7.95;2.13;;;8.20;65.80;;;;;;4975525;28;19992;-87
2022/04/15 00:53:42;;;;;;;4.53;1.92;;;8.20;64.50;;;;;;4977266;28;20038;-86
2022/04/15 00:56:08;;;;;;;4.72;1.58;;;8.30;63.80;;;;;;4994696;28;20033;-86
2022/04/15 00:58:37;;;;;;;4.72;1.70;;;8.30;64.30;;;;;;4977399;28;20037;-88
2022/04/15 01:01:04;;;;;;;4.55;1.70;;;8.30;64.30;;;;;;4977100;28;20065;-87
2022/04/15 01:03:29;;;;;;;;;;;8.30;62.60;;;;;;4977853;28;20026;-87
2022/04/15 01:05:57;;;;;;;3.80;1.10;;;8.40;63.10;;;;;;5009955;28;19952;-87
2022/04/15 01:08:26;;;;;;;5.10;2.22;;;8.30;64.00;;;;;;4977251;28;20033;-88
2022/04/15 01:10:54;;;;;;;5.60;1.83;;;8.30;63.00;;;;;;4994575;28;20019;-87
2022/04/15 01:13:22;;;;;;;5.57;1.77;;;8.30;63.70;;;;;;4978483;28;20046;-87
2022/04/15 01:15:48;;;;;;;15.50;2.28;;;8.30;65.00;;;;;;4976480;28;20031;-87
2022/04/15 01:18:14;;;;;;;5.45;2.72;;;8.20;66.50;;;;;;4977208;28;20065;-86
2022/04/15 01:20:42;;;;;;;6.07;2.20;;;8.10;68.60;;;;;;4977107;28;20022;-87
2022/04/15 01:23:08;;;;;;;7.18;1.80;;;8.00;69.80;;;;;;4977269;28;20034;-87
2022/04/15 01:25:34;;;;;;;;;;;8.00;70.90;;;;;;4977912;28;20121;-87
2022/04/15 01:27:59;;;;;;;5.25;2.15;;;7.80;71.70;;;;;;4976862;28;20408;-87
2022/04/15 01:30:25;;;;;;;5.50;2.05;;;7.80;72.20;;;;;;4994313;28;20030;-86
2022/04/15 01:32:51;;;;;;;5.63;1.95;;;7.70;74.10;;;;;;4976789;28;20708;-87
2022/04/15 01:35:19;;;;;;;4.10;1.80;;;7.70;74.60;;;;;;4976839;28;20023;-87
2022/04/15 01:37:47;;;;;;;4.97;2.13;;;7.70;75.40;;;;;;4976756;28;20113;-86
2022/04/15 01:40:14;;;;;;;12.63;3.60;;;7.70;76.50;;;;;;4976803;28;20561;-87
2022/04/15 01:42:41;;;;;;;11.70;5.13;;;7.60;75.70;;;;;;4993561;28;20072;-87
2022/04/15 01:45:08;;;;;;;11.52;3.75;;;7.70;74.30;;;;;;4993841;28;20042;-87
2022/04/15 01:47:35;;;;;;;10.63;2.40;;;7.70;74.00;;;;;;4993785;28;20509;-86
2022/04/15 01:50:02;;;;;;;6.30;2.42;;;7.70;73.40;;;;;;4976854;28;20019;-87
2022/04/15 01:52:28;;;;;;;3.58;1.70;;;7.80;74.40;;;;;;4976593;28;20042;-87
2022/04/15 01:54:53;;;;;;;5.85;2.28;;;7.80;74.30;;;;;;4976528;28;20455;-86
2022/04/15 01:57:19;;;;;;;3.92;1.10;;;7.80;74.10;;;;;;4976491;28;20058;-86
2022/04/15 01:59:45;;;;;;;7.65;1.50;;;7.80;73.20;;;;;;4976694;28;20483;-86
2022/04/15 02:02:11;;;;;;;5.10;1.63;;;7.90;72.40;;;;;;4993563;28;20483;-86
2022/04/15 02:04:36;;;;;;;;;;;7.90;72.50;;;;;;4977113;28;20061;-87
2022/04/15 02:07:03;;;;;;;4.93;1.95;;;7.90;72.50;;;;;;4976624;28;19969;-86
2022/04/15 02:09:29;;;;;;;7.00;2.47;;;7.90;72.60;;;;;;4976452;28;20026;-86
2022/04/15 02:11:55;;;;;;;8.57;2.00;;;7.90;73.30;;;;;;4976488;28;20576;-87
2022/04/15 02:14:20;;;;;;;6.38;2.40;;;7.90;74.10;;;;;;4992654;28;20027;-86
2022/04/15 02:16:47;;;;;;;;;;;7.90;74.40;;;;;;4993015;28;20022;-86
2022/04/15 02:19:12;;;;;;;7.28;2.10;;;7.80;74.60;;;;;;4976323;28;19917;-86
2022/04/15 02:21:38;;;;;;;7.18;2.80;;;7.80;75.90;;;;;;4976621;28;20034;-86
2022/04/15 02:24:04;;;;;;;6.80;2.45;;;7.70;77.20;;;;;;4975915;28;20023;-86
2022/04/15 02:26:30;;;;;;;;;;;7.60;78.90;;;;;;4976707;28;20031;-86
2022/04/15 02:28:56;;;;;;;6.32;2.28;;;7.60;80.90;;;;;;4976086;28;20321;-86
2022/04/15 02:31:21;;;;;;;8.30;3.00;;;7.50;79.10;;;;;;4992224;28;20489;-87
2022/04/15 02:33:47;;;;;;;5.60;2.22;;;7.50;80.70;;;;;;4976215;28;20042;-87
2022/04/15 02:36:13;;;;;;;9.05;2.28;;;7.50;80.40;;;;;;4992797;28;20390;-85
2022/04/15 02:38:39;;;;;;;4.13;1.92;;;7.50;80.40;;;;;;4993372;28;20034;-84
2022/04/15 02:41:06;;;;;;;4.55;1.75;;;7.50;79.00;;;;;;4993303;28;20026;-87
2022/04/15 02:43:32;;;;;;;4.57;1.85;;;7.50;78.50;;;;;;4976037;28;20479;-86
2022/04/15 02:46:03;;;;;;;6.20;2.25;;;7.60;79.90;;;;;;4975906;28;20050;-86
2022/04/15 02:48:32;;;;;;;12.13;2.20;;;7.60;80.00;;;;;;4975859;28;20513;-86
2022/04/15 02:50:59;;;;;;;5.70;2.05;;;7.50;79.80;;;;;;4976024;28;20031;-87
2022/04/15 02:53:25;;;;;;;7.57;1.80;;;7.50;78.90;;;;;;4976298;28;20042;-86
2022/04/15 02:55:50;;;;;;;;;;;7.50;80.10;;;;;;4979771;28;20019;-86
2022/04/15 02:58:16;;;;;;;6.50;2.25;;;7.40;84.20;;;;;;4979416;28;19906;-86
2022/04/15 03:00:42;;;;;;;4.88;2.35;;;7.40;82.40;;;;;;4979456;28;20027;-86
2022/04/15 03:03:08;;;;;;;4.82;1.88;;;7.30;82.50;;;;;;4979622;28;20031;-87
2022/04/15 03:05:33;;;;;;;9.65;3.05;;;7.30;82.90;;;;;;4979536;28;20030;-87
2022/04/15 03:07:59;;;;;;;6.38;2.00;;;7.30;83.20;;;;;;4997053;28;20033;-87
2022/04/15 03:10:25;;;;;;;8.77;1.80;;;7.30;83.20;;;;;;4979225;28;20034;-86
2022/04/15 03:12:51;;;;;;;;;;;7.30;81.40;;;;;;4979702;28;20092;-87
2022/04/15 03:15:17;;;;;;;3.88;1.58;;;7.30;79.90;;;;;;4979290;28;19912;-86
2022/04/15 03:17:42;;;;;;;3.58;1.75;;;7.40;79.50;;;;;;4995588;28;20129;-87
2022/04/15 03:20:09;;;;;;;;;;;7.40;82.10;;;;;;4979154;28;20122;-87
2022/04/15 03:22:39;;;;;;;5.13;1.50;;;7.30;84.40;;;;;;4996403;28;19920;-87
2022/04/15 03:25:09;;;;;;;14.07;2.22;;;7.20;86.50;;;;;;4996213;28;20026;-86
2022/04/15 03:27:34;;;;;;;3.25;1.52;;;7.20;88.50;;;;;;4979157;28;20030;-86
2022/04/15 03:30:01;;;;;;;3.40;1.48;;;7.10;87.60;;;;;;4979026;28;20080;-86
2022/04/15 03:32:27;;;;;;;8.48;1.65;;;7.10;88.90;;;;;;4978868;28;20045;-86
2022/04/15 03:34:56;;;;;;;4.53;1.70;;;7.00;87.20;;;;;;4978953;28;20160;-86
2022/04/15 03:37:22;;;;;;;8.20;1.77;;;7.10;86.20;;;;;;4978713;28;20375;-87
2022/04/15 03:39:48;;;;;;;7.82;1.70;;;7.10;87.80;;;;;;4978953;28;20172;-86
2022/04/15 03:42:13;;;;;;;7.30;2.25;;;7.20;85.70;;;;;;4978388;28;20031;-86
2022/04/15 03:44:39;;;;;;;;;;;7.20;82.20;;;;;;4977830;28;20125;-85
2022/04/15 03:47:06;;;;;;;6.25;1.58;;;7.30;80.10;;;;;;4977811;28;19918;-86
2022/04/15 03:49:31;;;;;;;2.28;1.02;;;7.30;80.10;;;;;;4978591;28;20498;-87
2022/04/15 03:51:58;;;;;;;10.07;1.75;;;7.40;81.10;;;;;;4978596;28;20061;-86
2022/04/15 03:54:24;;;;;;;6.38;1.33;;;7.40;82.90;;;;;;4978539;28;20023;-86
2022/04/15 03:56:49;;;;;;;5.22;1.73;;;7.40;83.60;;;;;;4978504;28;20089;-86
2022/04/15 03:59:15;;;;;;;;;;;7.30;83.50;;;;;;4978772;28;20037;-86
2022/04/15 04:01:42;;;;;;;4.53;1.42;;;7.30;84.80;;;;;;4978336;28;20329;-86
2022/04/15 04:04:08;;;;;;;8.23;1.30;;;7.30;82.00;;;;;;4978236;28;20380;-86
2022/04/15 04:06:33;;;;;;;;;;;7.40;80.20;;;;;;4978513;28;20090;-85
2022/04/15 04:08:59;;;;;;;5.03;1.40;;;7.50;79.00;;;;;;4978194;28;19913;-86
2022/04/15 04:11:25;;;;;;;10.85;1.55;;;7.60;77.00;;;;;;4978333;28;20027;-86
2022/04/15 04:13:51;;;;;;;3.63;1.20;;;7.70;75.80;;;;;;4978402;28;20125;-86
2022/04/15 04:16:18;;;;;;;2.78;1.00;;;7.70;76.10;;;;;;4978263;28;20095;-85
2022/04/15 04:18:44;;;;;;;6.80;1.15;;;7.80;72.90;;;;;;4978021;28;20068;-86
2022/04/15 04:21:10;;;;;;;;;;;7.90;74.40;;;;;;4978627;28;20066;-86
2022/04/15 04:23:36;;;;;;;4.97;1.40;;;7.90;75.00;;;;;;4995352;28;20370;-86
2022/04/15 04:26:03;;;;;;;5.43;1.20;;;7.90;74.30;;;;;;4977837;28;20023;-86
2022/04/15 04:28:29;;;;;;;3.63;1.00;;;8.00;76.20;;;;;;4977896;28;20038;-86
2022/04/15 04:30:54;;;;;;;3.17;0.90;;;8.00;76.30;;;;;;4995107;28;20026;-85
2022/04/15 04:33:20;;;;;;;;;;;8.00;77.00;;;;;;4995723;28;20098;-85
2022/04/15 04:35:46;;;;;;;4.72;1.17;;;8.10;79.10;;;;;;4994636;28;19968;-86
2022/04/15 04:38:12;;;;;;;4.95;1.30;;;8.20;77.60;;;;;;4995207;28;20529;-85
2022/04/15 04:40:38;;;;;;;;;;;8.40;75.10;;;;;;4995619;28;20398;-86
2022/04/15 04:43:05;;;;;;;5.00;1.35;;;8.90;70.90;;;;;;4978055;28;19913;-86
2022/04/15 04:45:32;;;;;;;5.72;1.90;;;9.40;65.20;;;;;;4974156;28;20051;-86
2022/04/15 04:48:00;;;;;;;4.65;2.67;;;10.00;61.90;;;;;;4958273;28;20034;-86
2022/04/15 04:50:25;;;;;;;5.22;2.42;;;10.50;60.20;;;;;;4958044;28;20050;-86
2022/04/15 04:52:52;;;;;;;9.20;3.45;;;11.10;60.30;;;;;;4958214;28;20033;-86
2022/04/15 04:55:18;;;;;;;8.57;3.47;;;11.70;58.50;;;;;;4958214;28;20529;-86
2022/04/15 04:57:45;;;;;;;7.53;3.95;;;12.30;56.70;;;;;;4975430;28;20027;-87
2022/04/15 05:00:12;;;;;;;11.85;5.38;;;12.90;56.10;;;;;;4957969;28;20023;-87
2022/04/15 05:02:38;;;;;;;19.35;6.05;;;13.20;53.80;;;;;;4990409;28;20491;-86
2022/04/15 05:05:04;;;;;;;;;;;13.60;51.90;;;;;;4958233;28;20027;-87
2022/04/15 05:07:30;;;;;;;17.83;3.72;;;14.00;51.90;;;;;;4957991;28;19910;-86
2022/04/15 05:09:56;;;;;;;;;;;14.40;50.10;;;;;;4958125;28;20037;-87
2022/04/15 05:12:21;;;;;;;12.25;6.60;;;14.80;47.00;;;;;;4975027;28;20405;-87
2022/04/15 05:14:47;;;;;;;;;;;15.30;45.60;;;;;;4958053;28;20066;-87
2022/04/15 05:17:13;;;;;;;7.55;4.55;;;16.00;43.30;;;;;;4956916;28;19913;-88
2022/04/15 05:19:38;;;;;;;6.03;3.80;;;16.50;41.80;;;;;;4957597;28;20058;-86
2022/04/15 05:22:04;;;;;;;;;;;16.80;40.20;;;;;;4958471;28;20579;-85
2022/04/15 05:24:30;;;;;;;11.85;5.47;;;17.20;41.10;;;;;;4974840;28;20270;-86
2022/04/15 05:26:55;;;;;;;11.23;4.55;;;17.40;40.50;;;;;;4974788;28;20102;-85
2022/04/15 05:29:21;;;;;;;6.13;3.35;;;17.60;39.80;;;;;;4957488;28;20113;-85
2022/04/15 05:31:47;;;;;;;6.38;2.90;;;17.60;39.10;;;;;;4957408;28;20023;-86
2022/04/15 05:34:13;;;;;;;7.25;2.17;;;17.80;39.20;;;;;;4957624;28;20030;-85
2022/04/15 05:36:38;;;;;;;4.22;2.15;;;17.80;37.70;;;;;;4957676;28;20050;-85
2022/04/15 05:39:04;;;;;;;12.05;2.65;;;17.80;37.20;;;;;;4957274;28;20023;-85
2022/04/15 05:41:29;;;;;;;4.57;2.22;;;17.90;38.90;;;;;;4974633;28;20514;-86
2022/04/15 05:43:57;;;;;;;3.20;1.83;;;17.90;38.20;;;;;;4957362;28;20121;-86
2022/04/15 05:46:23;;;;;;;4.15;1.52;;;18.20;36.40;;;;;;4974432;28;20537;-86
2022/04/15 05:48:48;;;;;;;7.30;2.25;;;18.30;34.90;;;;;;4974440;28;20027;-86
2022/04/15 05:51:14;;;;;;;6.30;1.88;;;18.60;34.50;;;;;;4957531;28;20027;-86
2022/04/15 05:53:40;;;;;;;8.05;3.75;;;18.80;34.00;;;;;;4957281;28;20559;-86
2022/04/15 05:56:05;;;;;;;8.57;2.78;;;19.10;33.80;;;;;;4957101;28;20507;-86
2022/04/15 05:58:31;;;;;;;8.38;2.70;;;19.40;32.80;;;;;;4974137;28;20023;-86
2022/04/15 06:00:57;;;;;;;5.05;2.78;;;19.90;31.80;;;;;;4974158;28;20400;-86
2022/04/15 06:03:23;;;;;;;4.80;2.38;;;20.20;30.00;;;;;;4957271;28;20130;-86
2022/04/15 06:05:50;;;;;;;9.73;2.40;;;20.50;30.10;;;;;;4989503;28;20027;-86
2022/04/15 06:08:16;;;;;;;7.00;3.03;;;20.90;30.00;;;;;;4957099;28;20033;-86
2022/04/15 06:10:42;;;;;;;5.88;2.60;;;21.10;30.00;;;;;;4957119;28;20031;-88
2022/04/15 06:13:14;;;;;;;4.70;2.80;;;21.60;29.70;;;;;;4957405;28;20019;-88
2022/04/15 06:15:51;;;;;;;5.75;3.33;;;21.70;29.40;;;;;;4955955;28;20043;-87
2022/04/15 06:18:20;;;;;;;6.13;3.20;;;21.70;28.20;;;;;;4956393;28;20030;-87
2022/04/15 06:20:47;;;;;;;7.15;4.70;;;21.40;28.40;;;;;;4974545;28;20406;-86
2022/04/15 06:23:14;;;;;;;7.35;4.20;;;21.20;28.80;;;;;;4974069;28;20042;-87
2022/04/15 06:25:41;;;;;;;14.05;5.88;;;21.00;28.70;;;;;;4957031;28;20058;-86
2022/04/15 06:28:07;;;;;;;12.07;4.82;;;20.90;29.20;;;;;;4975899;28;20038;-87
2022/04/15 06:30:33;;;;;;;8.75;4.85;;;21.00;29.30;;;;;;4977900;28;20030;-87
2022/04/15 06:32:59;;;;;;;8.93;4.78;;;21.10;28.50;;;;;;4960890;28;20034;-87
2022/04/15 06:35:25;;;;;;;11.63;5.35;;;21.40;28.70;;;;;;4960946;28;20077;-87
2022/04/15 06:37:51;;;;;;;8.80;5.43;;;21.80;29.40;;;;;;4960827;28;20054;-87
2022/04/15 06:40:17;;;;;;;11.73;5.72;;;22.00;28.60;;;;;;4978002;28;20027;-87
2022/04/15 06:42:43;;;;;;;7.28;5.45;;;22.10;28.80;;;;;;4960392;28;20080;-88
2022/04/15 06:45:11;;;;;;;15.20;5.70;;;22.40;28.90;;;;;;4977346;28;20126;-87
2022/04/15 06:47:37;;;;;;;11.52;4.38;;;22.50;29.10;;;;;;4960909;28;20038;-87
2022/04/15 06:50:02;;;;;;;11.50;4.68;;;22.60;28.70;;;;;;4960940;28;20019;-87
2022/04/15 06:52:28;;;;;;;10.75;5.35;;;22.50;28.50;;;;;;4960359;28;20027;-88
2022/04/15 06:54:54;;;;;;;15.10;5.15;;;22.70;28.60;;;;;;4960077;28;20031;-87
2022/04/15 06:57:20;;;;;;;9.15;5.35;;;22.90;28.70;;;;;;4960327;28;20517;-87
2022/04/15 06:59:45;;;;;;;10.13;5.65;;;23.00;27.80;;;;;;4960319;28;20502;-87
2022/04/15 07:02:11;;;;;;;9.43;6.22;;;23.00;27.60;;;;;;4977696;28;20038;-88
2022/04/15 07:04:37;;;;;;;13.60;6.07;;;23.10;27.70;;;;;;4960350;28;20050;-87
2022/04/15 07:07:02;;;;;;;8.23;5.50;;;23.40;27.60;;;;;;4978382;28;20659;-87
2022/04/15 07:09:28;;;;;;;11.02;6.15;;;24.10;27.30;;;;;;4959698;28;20509;-88
2022/04/15 07:11:54;;;;;;;11.70;5.35;;;24.40;26.70;;;;;;4960523;28;20513;-88
2022/04/15 07:14:20;;;;;;;11.38;4.85;;;24.70;25.50;;;;;;4959686;28;20078;-88
2022/04/15 07:16:45;;;;;;;8.80;4.72;;;25.10;25.10;;;;;;4960047;28;20507;-87
2022/04/15 07:19:11;;;;;;;6.97;4.95;;;25.40;24.40;;;;;;4960138;28;20118;-88
2022/04/15 07:21:38;;;;;;;9.70;4.82;;;25.50;24.50;;;;;;4960002;28;20114;-87
2022/04/15 07:24:04;;;;;;;6.55;4.57;;;26.10;24.20;;;;;;4959942;28;20081;-88
2022/04/15 07:26:31;;;;;;;8.93;5.40;;;26.80;23.80;;;;;;4960149;28;20042;-89
2022/04/15 07:28:57;;;;;;;9.30;4.90;;;27.10;24.10;;;;;;4959716;28;20031;-88
2022/04/15 07:31:24;;;;;;;8.50;3.80;;;27.50;24.00;;;;;;4992037;28;20380;-89
2022/04/15 07:33:51;;;;;;;10.95;3.30;;;27.50;23.20;;;;;;4976920;28;20034;-89
2022/04/15 07:39:06;;;;;;;6.60;3.45;;;27.40;22.70;;;;;;4979370;28;20496;-88
2022/04/15 07:41:36;;;;;;;10.70;3.30;;;28.00;23.20;;;;;;4959708;28;20027;-88
2022/04/15 07:44:03;;;;;;;7.28;3.40;;;28.50;22.60;;;;;;4959754;28;20038;-88
2022/04/15 07:46:30;;;;;;;3.88;2.63;;;28.90;21.70;;;;;;4959664;28;20121;-88
2022/04/15 07:48:55;;;;;;;9.40;2.72;;;29.40;21.20;;;;;;4959593;28;20507;-88
2022/04/15 07:51:21;;;;;;;14.52;3.03;;;29.20;20.90;;;;;;4958947;28;20027;-88
2022/04/15 07:53:47;;;;;;;7.38;2.88;;;29.00;20.90;;;;;;4976308;28;20042;-87
2022/04/15 07:56:12;;;;;;;5.57;2.97;;;28.20;20.20;;;;;;4959494;28;20554;-88
2022/04/15 07:58:38;;;;;;;14.68;2.65;;;27.40;20.70;;;;;;4959485;28;20031;-87
2022/04/15 08:01:03;;;;;;;10.00;2.75;;;27.10;21.20;;;;;;4959398;28;20070;-88
2022/04/15 08:03:29;;;;;;;6.60;2.80;;;27.10;20.90;;;;;;4959080;28;20027;-87
2022/04/15 08:05:55;;;;;;;4.95;2.95;;;27.70;20.40;;;;;;4976281;28;20027;-87
2022/04/15 08:08:21;;;;;;;5.05;2.95;;;27.50;19.50;;;;;;4958742;28;20023;-88
2022/04/15 08:10:48;;;;;;;11.27;2.15;;;27.50;20.60;;;;;;4959089;28;20034;-88
2022/04/15 08:13:14;;;;;;;6.50;3.05;;;28.20;20.50;;;;;;4958971;28;20469;-88
2022/04/15 08:15:40;;;;;;;10.88;2.50;;;28.60;20.00;;;;;;4976126;28;20380;-87
2022/04/15 08:18:06;;;;;;;5.82;2.08;;;28.40;20.20;;;;;;4959061;28;20042;-88
2022/04/15 08:20:31;;;;;;;8.50;2.95;;;28.60;19.70;;;;;;4959079;28;20652;-89
2022/04/15 08:22:57;;;;;;;6.70;2.80;;;28.40;19.70;;;;;;4958996;28;20487;-87
2022/04/15 08:25:23;;;;;;;15.20;2.00;;;28.20;19.00;;;;;;4958946;28;20074;-88
2022/04/15 08:27:48;;;;;;;10.88;3.03;;;27.30;19.40;;;;;;4958812;28;20425;-88
2022/04/15 08:30:14;;;;;;;7.38;2.38;;;26.60;20.20;;;;;;4976051;28;20054;-87
2022/04/15 08:32:40;;;;;;;4.03;2.45;;;26.10;20.60;;;;;;4958654;28;20455;-87
2022/04/15 08:35:08;;;;;;;3.95;2.13;;;25.50;21.10;;;;;;4975525;28;20026;-88
2022/04/15 08:37:34;;;;;;;6.10;2.28;;;24.90;21.90;;;;;;4958814;28;20055;-88
2022/04/15 08:40:00;;;;;;;6.97;2.72;;;24.40;23.10;;;;;;4958697;28;20081;-88
2022/04/15 08:42:26;;;;;;;5.43;2.30;;;24.60;23.30;;;;;;4991041;28;20027;-87
2022/04/15 08:44:53;;;;;;;9.20;2.90;;;24.80;23.50;;;;;;4975640;28;20050;-88
2022/04/15 08:47:20;;;;;;;7.35;2.88;;;25.70;23.40;;;;;;4957556;28;20118;-88
2022/04/15 08:49:47;;;;;;;4.40;2.22;;;26.30;22.60;;;;;;4957242;28;20026;-87
2022/04/15 08:52:16;;;;;;;8.02;2.50;;;27.20;21.70;;;;;;4989540;28;20410;-87
2022/04/15 08:54:43;;;;;;;6.45;1.95;;;28.00;21.00;;;;;;4990400;28;20023;-89
2022/04/15 08:57:09;;;;;;;12.38;2.50;;;28.20;20.60;;;;;;4975477;28;20491;-88
2022/04/15 08:59:36;;;;;;;5.50;2.47;;;28.40;20.90;;;;;;4958183;28;20031;-87
2022/04/15 09:02:01;;;;;;;3.53;2.15;;;28.10;20.80;;;;;;4958214;28;20033;-87
2022/04/15 09:04:27;;;;;;;4.90;1.70;;;27.80;20.90;;;;;;4958128;28;20026;-87
2022/04/15 09:06:59;;;;;;;10.93;2.75;;;27.40;20.00;;;;;;4974926;28;20034;-87
2022/04/15 09:09:29;;;;;;;6.45;3.05;;;26.60;20.60;;;;;;4957996;28;20027;-88
2022/04/15 09:11:59;;;;;;;4.45;2.53;;;26.10;21.20;;;;;;4957868;28;20038;-86
2022/04/15 09:14:25;;;;;;;6.47;1.95;;;25.80;21.80;;;;;;4957983;28;20034;-88
2022/04/15 09:16:51;;;;;;;3.65;2.17;;;25.40;22.00;;;;;;4957805;28;20509;-86
2022/04/15 09:19:19;;;;;;;7.43;2.30;;;25.10;22.30;;;;;;4975269;28;20026;-86
2022/04/15 09:21:55;;;;;;;5.68;2.83;;;24.90;22.70;;;;;;4958542;28;20058;-86
2022/04/15 09:24:33;;;;;;;;;;;24.70;22.70;;;;;;4958160;28;20411;-87
2022/04/15 09:27:04;;;;;;;6.55;2.63;;;24.20;22.90;;;;;;4957718;28;19992;-85
2022/04/15 09:29:38;;;;;;;5.57;2.60;;;24.00;22.80;;;;;;4957730;28;20034;-86
2022/04/15 09:32:14;;;;;;;4.65;2.20;;;23.70;22.30;;;;;;4989878;28;20410;-86
2022/04/15 09:34:56;;;;;;;7.68;2.50;;;23.30;22.30;;;;;;4989692;28;20130;-86
2022/04/15 09:37:25;;;;;;;6.18;2.42;;;22.90;22.40;;;;;;4957715;28;20042;-88
2022/04/15 09:40:18;;;;;;;13.63;3.83;;;22.60;22.10;;;;;;4957702;28;20029;-86
2022/04/15 09:42:52;;;;;;;11.13;2.55;;;22.50;22.80;;;;;;4974888;28;20050;-86
2022/04/15 09:45:23;;;;;;;7.25;2.47;;;22.50;23.30;;;;;;4989512;28;20066;-86
2022/04/15 09:47:53;;;;;;;14.98;3.20;;;22.60;23.00;;;;;;4989598;28;20027;-87
2022/04/15 09:50:26;;;;;;;11.30;3.38;;;23.10;22.90;;;;;;4957932;28;20035;-88
2022/04/15 09:52:53;;;;;;;13.52;3.35;;;23.90;22.60;;;;;;4957159;28;20038;-87
2022/04/15 09:55:25;;;;;;;20.75;3.17;;;24.80;22.30;;;;;;4957415;28;20022;-87
2022/04/15 09:57:52;;;;;;;13.65;3.47;;;25.70;21.40;;;;;;4974382;28;20037;-88
2022/04/15 10:00:19;;;;;;;8.98;3.50;;;26.20;20.90;;;;;;4957329;28;20027;-87
2022/04/15 10:02:46;;;;;;;15.82;3.45;;;26.60;20.00;;;;;;4974389;28;20042;-89
2022/04/15 10:05:14;;;;;;;10.52;3.70;;;26.60;19.60;;;;;;4956918;28;20037;-87
2022/04/15 10:07:41;;;;;;;12.35;4.20;;;26.30;19.60;;;;;;4989398;28;20037;-87
2022/04/15 10:10:09;;;;;;;17.17;3.83;;;26.00;19.40;;;;;;4989680;28;20029;-87
2022/04/15 10:12:41;;;;;;;11.75;3.92;;;26.00;19.00;;;;;;4956964;28;20122;-87
2022/04/15 10:15:09;;;;;;;20.73;4.32;;;25.80;19.90;;;;;;4957194;28;20606;-86
2022/04/15 10:17:37;;;;;;;8.45;3.08;;;25.30;19.90;;;;;;4957016;28;20027;-87
2022/04/15 10:20:04;;;;;;;5.45;3.13;;;24.70;20.40;;;;;;4957185;28;20026;-88
2022/04/15 10:22:30;;;;;;;11.82;4.15;;;24.30;21.20;;;;;;4957366;28;20030;-86
2022/04/15 10:24:56;;;;;;;7.30;3.83;;;24.50;21.10;;;;;;4958501;28;20081;-88
2022/04/15 10:27:26;;;;;;;10.15;3.28;;;24.60;21.50;;;;;;4957187;28;20019;-86
2022/04/15 10:30:18;;;;;;;7.15;3.85;;;24.70;22.00;;;;;;4957156;28;20136;-87
2022/04/15 10:32:57;;;;;;;12.38;5.75;;;24.70;20.80;;;;;;4974264;28;20059;-87
2022/04/15 10:35:28;;;;;;;11.30;3.45;;;24.50;21.50;;;;;;4974229;28;20027;-87
2022/04/15 10:37:57;;;;;;;15.00;3.60;;;24.30;22.00;;;;;;4974261;28;20085;-87
2022/04/15 10:40:30;;;;;;;16.95;4.25;;;24.20;22.40;;;;;;4989340;28;20023;-87
2022/04/15 10:43:17;;;;;;;13.18;3.42;;;24.00;22.70;;;;;;4956752;28;20022;-87
2022/04/15 10:45:43;;;;;;;9.93;2.90;;;24.00;23.00;;;;;;4956793;28;20101;-87
2022/04/15 10:48:08;;;;;;;6.78;3.00;;;23.90;22.80;;;;;;4973849;28;20035;-87
2022/04/15 10:50:35;;;;;;;13.48;3.33;;;23.80;22.90;;;;;;4956712;28;20027;-87
2022/04/15 10:53:23;;;;;;;4.40;2.08;;;23.60;23.20;;;;;;4956695;28;20034;-86
2022/04/15 10:55:52;;;;;;;8.55;2.58;;;23.30;23.60;;;;;;4974185;28;20110;-87
2022/04/15 10:58:19;;;;;;;6.15;3.67;;;23.30;24.10;;;;;;4973987;28;20030;-86
2022/04/15 11:01:14;;;;;;;11.57;4.82;;;23.30;24.00;;;;;;4956609;28;20022;-86
2022/04/15 11:03:41;;;;;;;6.28;3.25;;;23.30;23.40;;;;;;4949130;28;20031;-87
2022/04/15 11:06:09;;;;;;;5.40;3.13;;;22.90;23.30;;;;;;4959875;28;20522;-88
2022/04/15 11:08:46;;;;;;;8.50;2.53;;;22.80;23.90;;;;;;4958790;28;20121;-86
2022/04/15 11:11:12;;;;;;;7.20;2.85;;;22.90;24.40;;;;;;4956616;28;20031;-87
2022/04/15 11:13:40;;;;;;;4.95;2.28;;;22.80;24.20;;;;;;4973679;28;20038;-86
2022/04/15 11:16:13;;;;;;;8.45;2.67;;;23.00;24.20;;;;;;4975695;28;20023;-87
2022/04/15 11:18:46;;;;;;;7.32;2.70;;;22.80;24.70;;;;;;4976502;28;20027;-87
2022/04/15 11:21:31;;;;;;;8.68;2.22;;;22.70;25.10;;;;;;4975525;28;20049;-86
2022/04/15 11:24:05;;;;;;;8.00;2.53;;;22.50;24.50;;;;;;4976223;28;20202;-87
2022/04/15 11:26:32;;;;;;;7.38;2.92;;;22.40;24.80;;;;;;4960299;28;20050;-87
2022/04/15 11:29:00;;;;;;;7.45;2.78;;;22.20;25.40;;;;;;4959372;28;20042;-85
2022/04/15 11:31:29;;;;;;;6.22;2.58;;;22.00;25.10;;;;;;4959812;28;20023;-86
2022/04/15 11:34:01;;;;;;;6.47;2.22;;;21.90;25.40;;;;;;4976886;28;20450;-87
2022/04/15 11:36:28;;;;;;;9.65;2.33;;;21.70;26.10;;;;;;4959973;28;20061;-87
2022/04/15 11:38:54;;;;;;;5.82;2.50;;;21.40;26.30;;;;;;4959392;28;20035;-87
2022/04/15 11:41:25;;;;;;;6.63;3.25;;;21.20;26.00;;;;;;4959696;28;20030;-87
2022/04/15 11:43:57;;;;;;;8.10;3.80;;;20.80;26.10;;;;;;4959268;28;20035;-86
2022/04/15 11:46:23;;;;;;;9.55;4.55;;;20.60;27.00;;;;;;4959500;28;20055;-86
2022/04/15 11:48:50;;;;;;;6.70;3.90;;;20.30;26.90;;;;;;4975651;28;20027;-86
2022/04/15 11:51:22;;;;;;;8.80;3.08;;;20.30;27.00;;;;;;4959729;28;20031;-87
2022/04/15 11:53:48;;;;;;;6.30;2.45;;;20.30;27.40;;;;;;4959329;28;20058;-86
2022/04/15 11:56:15;;;;;;;7.13;2.33;;;20.20;28.20;;;;;;4959530;28;20113;-86
2022/04/15 11:58:43;;;;;;;7.38;3.20;;;20.20;28.70;;;;;;4975220;28;20031;-87
2022/04/15 12:01:09;;;;;;;9.88;3.67;;;20.00;29.40;;;;;;4959444;28;20022;-86
2022/04/15 12:03:35;;;;;;;6.00;3.45;;;20.00;31.60;;;;;;4995105;28;20030;-86
2022/04/15 12:06:02;;;;;;;9.13;3.60;;;20.00;32.90;;;;;;4996073;28;20034;-87
2022/04/15 12:08:29;;;;;;;15.10;4.18;;;20.10;33.10;;;;;;4978753;28;20034;-85
2022/04/15 12:10:55;;;;;;;9.15;3.80;;;20.00;34.60;;;;;;4995624;28;20046;-87
2022/04/15 12:13:21;;;;;;;7.82;2.90;;;19.90;32.90;;;;;;4995734;28;20490;-87
2022/04/15 12:15:47;;;;;;;3.72;2.20;;;20.00;34.10;;;;;;4995710;28;20550;-86
2022/04/15 12:18:12;;;;;;;6.03;2.35;;;20.10;33.60;;;;;;4995501;28;20080;-86
2022/04/15 12:20:40;;;;;;;6.28;2.35;;;20.20;31.90;;;;;;4978319;28;20022;-87
2022/04/15 12:23:12;;;;;;;9.73;2.17;;;20.10;32.10;;;;;;4978309;28;20038;-86
2022/04/15 12:31:25;;;;;;;3.85;1.73;;;19.60;30.80;;;;;;4995726;28;20076;-87
2022/04/15 12:33:50;;;;;;;5.25;1.80;;;19.40;31.80;;;;;;4995311;28;20106;-86
2022/04/15 12:36:17;;;;;;;4.35;1.58;;;19.40;32.30;;;;;;4979850;28;20054;-87
2022/04/15 12:39:00;;;;;;;2.65;1.20;;;19.40;33.10;;;;;;4978085;28;20080;-87
2022/04/15 12:41:42;;;;;;;9.23;1.80;;;19.50;33.90;;;;;;4977836;28;20022;-87
2022/04/15 12:44:15;;;;;;;5.55;1.75;;;19.60;34.20;;;;;;4978105;28;20494;-87
2022/04/15 12:46:43;;;;;;;7.75;2.00;;;19.70;34.80;;;;;;4994830;28;20069;-87
2022/04/15 12:49:33;;;;;;;3.53;1.60;;;19.70;36.10;;;;;;4979069;28;20042;-87
2022/04/15 12:52:16;;;;;;;11.27;2.53;;;19.70;35.20;;;;;;4977624;28;20041;-88
2022/04/15 12:54:59;;;;;;;4.47;2.00;;;19.50;35.50;;;;;;4977807;28;20089;-85
2022/04/15 12:57:33;;;;;;;5.43;2.40;;;19.40;35.40;;;;;;4995301;28;20035;-87
2022/04/15 12:59:59;;;;;;;4.38;2.20;;;19.20;35.70;;;;;;4977571;28;20561;-86
2022/04/15 13:02:28;;;;;;;5.63;2.05;;;19.00;36.80;;;;;;4977674;28;20121;-87
2022/04/15 13:04:54;;;;;;;5.47;1.98;;;18.80;38.80;;;;;;4977299;28;20041;-86